ADDS TAF Board (Experimental) INFO Settings
IDs: Format: Expanded Condensed

KCVG - Cincinnati Intl, KY, US

Issued at 1122 UTC 07 Feb 2016
Updated at: 1257 UTC 07 Feb 2016
Time1252Z 07/13Z 07/14Z 07/15Z 07/16Z 07/17Z 07/18Z 07/19Z 07/20Z 07/21Z 07/22Z 07/23Z 08/00Z 08/01Z
Type OBS PRVL PRVL PRVL PRVL PRVL PRVL PRVL PRVL PRVL PRVL PRVL PRVL PRVL
VIS 10 >6 >6 >6 >6 >6 >6 >6 >6 >6 >6 >6 >6 >6
CIG -- -- -- -- -- -- -- -- -- -- -- 50 50 50
Cover SCT FEW FEW SCT SCT SCT SCT SCT SCT SCT SCT OVC OVC OVC
FltCat VFR VFR VFR VFR VFR VFR VFR VFR VFR VFR VFR VFR VFR VFR
WX -- -- -- -- -- -- -- -- -- -- -- -- -- --
WDir 200 210 210 210 210 210 210 210 210 210 210 200 200 200
WSpd 6 6 6 13 13 13 13 13 13 13 13 6 6 6
WGst -- -- -- -- -- -- -- -- -- -- -- -- -- --
R09/27
XWnd -6 -5 -5 -11 -11 -11 -11 -11 -11 -11 -11 -6 -6 -6
HWnd -2 -3 -3 -7 -7 -7 -7 -7 -7 -7 -7 -2 -2 -2
R18/36
XWnd -2 -3 -3 -7 -7 -7 -7 -7 -7 -7 -7 -2 -2 -2
HWnd 6 5 5 11 11 11 11 11 11 11 11 6 6 6

NOTE: TEMPO conditions in [brackets]. Keep in mind TEMPO conditions might be better (lower impact) than prevailing conditions.

Raw TAF
KCVG 071122Z 0712/0818 21006KT P6SM FEW250
  FM071500 21013KT P6SM SCT150
  FM072300 20006KT P6SM BKN050 OVC120
  FM080300 20006KT P6SM -RA BKN025 OVC040
  FM080900 25008KT P6SM BKN025 OVC100
  FM081700 27010KT P6SM VCSH OVC025


Raw METAR
KCVG 071252Z 20006KT 10SM FEW150 SCT250 M01/M06 A3011 RMK AO2 SLP200 T10061056 $
KCVG 071152Z COR 20006KT 10SM CLR M01/M06 A3011 RMK AO2 SLP200 T10061056 10011 21006 56014 TSNO $
KCVG 071052Z AUTO 21006KT 10SM CLR 00/M05 A3012 RMK AO2 SLP203 T00001050 TSNO $
KCVG 070952Z AUTO 20006KT 10SM CLR M01/M05 A3013 RMK AO2 SLP206 T10061050 TSNO $

METAR Board
Radar Display
Forecast Discussion

TAF Board Legend

Potential Impact
Threat None Slight Moderate High
Visibility (sm) ≥5.1 5.1>X≥3 3>X≥1 <1
Ceiling (100 ft) ≥30.1 30.1>X≥10 10>X≥5 <5
Wind Speed (kt) <10 10≤X<20 20≤X<30 ≥30
Wind Gust (kt) <15 15≤X<25 25≤X<35 ≥35
Weather No Wx Reported VCTS,-TS,-FZRA,SN TS,FZRA +TS,+FZRA,+SN